sensor_id;sensor_type;location;lat;lon;timestamp;P1;durP1;ratioP1;P2;durP2;ratioP2
4186;SDS011;2107;52.306;10.484;2024-03-25T00:00:22;0.00;;;0.00;;
4186;SDS011;2107;52.306;10.484;2024-03-25T00:02:50;0.00;;;0.00;;
4186;SDS011;2107;52.306;10.484;2024-03-25T00:05:16;0.00;;;0.00;;
4186;SDS011;2107;52.306;10.484;2024-03-25T00:07:47;0.00;;;0.00;;
4186;SDS011;2107;52.306;10.484;2024-03-25T00:10:13;0.00;;;0.00;;
4186;SDS011;2107;52.306;10.484;2024-03-25T00:12:41;0.00;;;0.00;;
4186;SDS011;2107;52.306;10.484;2024-03-25T00:15:07;0.00;;;0.00;;
4186;SDS011;2107;52.306;10.484;2024-03-25T00:17:35;0.00;;;0.00;;
4186;SDS011;2107;52.306;10.484;2024-03-25T00:20:01;0.00;;;0.00;;
4186;SDS011;2107;52.306;10.484;2024-03-25T00:22:31;0.00;;;0.00;;
4186;SDS011;2107;52.306;10.484;2024-03-25T00:24:57;0.00;;;0.00;;
4186;SDS011;2107;52.306;10.484;2024-03-25T00:27:23;0.00;;;0.00;;
4186;SDS011;2107;52.306;10.484;2024-03-25T00:29:49;0.00;;;0.00;;
4186;SDS011;2107;52.306;10.484;2024-03-25T00:32:17;0.00;;;0.00;;
4186;SDS011;2107;52.306;10.484;2024-03-25T00:34:44;0.10;;;0.10;;
4186;SDS011;2107;52.306;10.484;2024-03-25T00:37:11;0.00;;;0.00;;
4186;SDS011;2107;52.306;10.484;2024-03-25T00:39:37;0.00;;;0.00;;
4186;SDS011;2107;52.306;10.484;2024-03-25T00:42:04;0.00;;;0.00;;
4186;SDS011;2107;52.306;10.484;2024-03-25T00:44:29;0.00;;;0.00;;
4186;SDS011;2107;52.306;10.484;2024-03-25T00:46:56;0.00;;;0.00;;
4186;SDS011;2107;52.306;10.484;2024-03-25T00:49:22;0.10;;;0.10;;
4186;SDS011;2107;52.306;10.484;2024-03-25T00:51:51;0.10;;;0.10;;
4186;SDS011;2107;52.306;10.484;2024-03-25T00:54:17;0.00;;;0.00;;
4186;SDS011;2107;52.306;10.484;2024-03-25T00:56:44;0.00;;;0.00;;
4186;SDS011;2107;52.306;10.484;2024-03-25T00:59:11;0.00;;;0.00;;
4186;SDS011;2107;52.306;10.484;2024-03-25T01:01:38;0.00;;;0.00;;
4186;SDS011;2107;52.306;10.484;2024-03-25T01:04:04;0.00;;;0.00;;
4186;SDS011;2107;52.306;10.484;2024-03-25T01:06:31;0.00;;;0.00;;
4186;SDS011;2107;52.306;10.484;2024-03-25T01:08:58;0.00;;;0.00;;
4186;SDS011;2107;52.306;10.484;2024-03-25T01:11:25;0.00;;;0.00;;
4186;SDS011;2107;52.306;10.484;2024-03-25T01:13:51;0.00;;;0.00;;
4186;SDS011;2107;52.306;10.484;2024-03-25T01:16:17;0.10;;;0.10;;
4186;SDS011;2107;52.306;10.484;2024-03-25T01:18:43;0.10;;;0.10;;
4186;SDS011;2107;52.306;10.484;2024-03-25T01:21:10;0.00;;;0.00;;
4186;SDS011;2107;52.306;10.484;2024-03-25T01:23:36;0.10;;;0.10;;
4186;SDS011;2107;52.306;10.484;2024-03-25T01:26:04;0.00;;;0.00;;
4186;SDS011;2107;52.306;10.484;2024-03-25T01:28:30;0.00;;;0.00;;
4186;SDS011;2107;52.306;10.484;2024-03-25T01:30:57;0.10;;;0.10;;
4186;SDS011;2107;52.306;10.484;2024-03-25T01:33:23;0.00;;;0.00;;
4186;SDS011;2107;52.306;10.484;2024-03-25T01:35:50;0.10;;;0.10;;
4186;SDS011;2107;52.306;10.484;2024-03-25T01:38:16;0.10;;;0.10;;
4186;SDS011;2107;52.306;10.484;2024-03-25T01:40:43;0.10;;;0.10;;
4186;SDS011;2107;52.306;10.484;2024-03-25T01:43:11;0.10;;;0.10;;
4186;SDS011;2107;52.306;10.484;2024-03-25T01:45:38;0.10;;;0.10;;
4186;SDS011;2107;52.306;10.484;2024-03-25T01:48:05;0.10;;;0.10;;
4186;SDS011;2107;52.306;10.484;2024-03-25T01:50:35;0.10;;;0.10;;
4186;SDS011;2107;52.306;10.484;2024-03-25T01:53:03;0.10;;;0.10;;
4186;SDS011;2107;52.306;10.484;2024-03-25T01:55:32;0.00;;;0.00;;
4186;SDS011;2107;52.306;10.484;2024-03-25T01:58:00;0.10;;;0.10;;
4186;SDS011;2107;52.306;10.484;2024-03-25T02:00:28;0.00;;;0.00;;
4186;SDS011;2107;52.306;10.484;2024-03-25T02:02:54;0.10;;;0.10;;
4186;SDS011;2107;52.306;10.484;2024-03-25T02:05:22;0.10;;;0.10;;
4186;SDS011;2107;52.306;10.484;2024-03-25T02:07:48;0.10;;;0.10;;
4186;SDS011;2107;52.306;10.484;2024-03-25T02:10:15;0.00;;;0.00;;
4186;SDS011;2107;52.306;10.484;2024-03-25T02:12:42;0.10;;;0.10;;
4186;SDS011;2107;52.306;10.484;2024-03-25T02:15:09;0.10;;;0.10;;
4186;SDS011;2107;52.306;10.484;2024-03-25T02:17:37;0.10;;;0.10;;
4186;SDS011;2107;52.306;10.484;2024-03-25T02:20:05;0.10;;;0.10;;
4186;SDS011;2107;52.306;10.484;2024-03-25T02:22:32;0.10;;;0.10;;
4186;SDS011;2107;52.306;10.484;2024-03-25T02:25:01;0.10;;;0.10;;
4186;SDS011;2107;52.306;10.484;2024-03-25T02:27:31;0.10;;;0.10;;
4186;SDS011;2107;52.306;10.484;2024-03-25T02:30:01;0.10;;;0.10;;
4186;SDS011;2107;52.306;10.484;2024-03-25T02:32:28;0.10;;;0.10;;
4186;SDS011;2107;52.306;10.484;2024-03-25T02:34:56;0.10;;;0.10;;
4186;SDS011;2107;52.306;10.484;2024-03-25T02:37:22;0.10;;;0.10;;
4186;SDS011;2107;52.306;10.484;2024-03-25T02:39:50;0.10;;;0.10;;
4186;SDS011;2107;52.306;10.484;2024-03-25T02:42:16;0.10;;;0.10;;
4186;SDS011;2107;52.306;10.484;2024-03-25T02:44:46;0.10;;;0.10;;
4186;SDS011;2107;52.306;10.484;2024-03-25T02:47:12;0.10;;;0.10;;
4186;SDS011;2107;52.306;10.484;2024-03-25T02:49:39;0.10;;;0.10;;
4186;SDS011;2107;52.306;10.484;2024-03-25T02:52:05;0.10;;;0.10;;
4186;SDS011;2107;52.306;10.484;2024-03-25T02:54:32;0.10;;;0.10;;
4186;SDS011;2107;52.306;10.484;2024-03-25T02:56:58;0.10;;;0.10;;
4186;SDS011;2107;52.306;10.484;2024-03-25T02:59:25;0.10;;;0.10;;
4186;SDS011;2107;52.306;10.484;2024-03-25T03:01:52;0.10;;;0.10;;
4186;SDS011;2107;52.306;10.484;2024-03-25T03:04:19;0.10;;;0.10;;
4186;SDS011;2107;52.306;10.484;2024-03-25T03:06:45;0.10;;;0.10;;
4186;SDS011;2107;52.306;10.484;2024-03-25T03:09:15;0.00;;;0.00;;
4186;SDS011;2107;52.306;10.484;2024-03-25T03:11:40;0.00;;;0.00;;
4186;SDS011;2107;52.306;10.484;2024-03-25T03:14:08;0.10;;;0.10;;
4186;SDS011;2107;52.306;10.484;2024-03-25T03:16:34;0.00;;;0.00;;
4186;SDS011;2107;52.306;10.484;2024-03-25T03:19:03;0.00;;;0.00;;
4186;SDS011;2107;52.306;10.484;2024-03-25T03:21:28;0.00;;;0.00;;
4186;SDS011;2107;52.306;10.484;2024-03-25T03:23:56;0.00;;;0.00;;
4186;SDS011;2107;52.306;10.484;2024-03-25T03:26:22;0.00;;;0.00;;
4186;SDS011;2107;52.306;10.484;2024-03-25T03:28:51;0.00;;;0.00;;
4186;SDS011;2107;52.306;10.484;2024-03-25T03:31:18;0.10;;;0.10;;
4186;SDS011;2107;52.306;10.484;2024-03-25T03:33:46;0.00;;;0.00;;
4186;SDS011;2107;52.306;10.484;2024-03-25T03:36:13;0.10;;;0.10;;
4186;SDS011;2107;52.306;10.484;2024-03-25T03:38:41;0.00;;;0.00;;
4186;SDS011;2107;52.306;10.484;2024-03-25T03:41:07;0.10;;;0.10;;
4186;SDS011;2107;52.306;10.484;2024-03-25T03:43:35;0.10;;;0.10;;
4186;SDS011;2107;52.306;10.484;2024-03-25T03:46:00;0.10;;;0.10;;
4186;SDS011;2107;52.306;10.484;2024-03-25T03:48:28;0.10;;;0.10;;
4186;SDS011;2107;52.306;10.484;2024-03-25T03:50:54;0.10;;;0.10;;
4186;SDS011;2107;52.306;10.484;2024-03-25T03:53:22;0.10;;;0.10;;
4186;SDS011;2107;52.306;10.484;2024-03-25T03:55:52;0.10;;;0.10;;
4186;SDS011;2107;52.306;10.484;2024-03-25T03:58:20;0.10;;;0.10;;
4186;SDS011;2107;52.306;10.484;2024-03-25T04:00:46;0.10;;;0.10;;
4186;SDS011;2107;52.306;10.484;2024-03-25T04:03:13;0.10;;;0.10;;
4186;SDS011;2107;52.306;10.484;2024-03-25T04:05:38;0.10;;;0.10;;
4186;SDS011;2107;52.306;10.484;2024-03-25T04:08:06;0.10;;;0.10;;
4186;SDS011;2107;52.306;10.484;2024-03-25T04:10:35;0.10;;;0.10;;
4186;SDS011;2107;52.306;10.484;2024-03-25T04:13:02;0.10;;;0.10;;
4186;SDS011;2107;52.306;10.484;2024-03-25T04:15:28;0.10;;;0.10;;
4186;SDS011;2107;52.306;10.484;2024-03-25T04:17:58;0.10;;;0.10;;
4186;SDS011;2107;52.306;10.484;2024-03-25T04:20:24;0.10;;;0.10;;
4186;SDS011;2107;52.306;10.484;2024-03-25T04:22:52;0.10;;;0.10;;
4186;SDS011;2107;52.306;10.484;2024-03-25T04:25:18;0.10;;;0.10;;
4186;SDS011;2107;52.306;10.484;2024-03-25T04:27:46;0.10;;;0.10;;
4186;SDS011;2107;52.306;10.484;2024-03-25T04:30:12;0.00;;;0.00;;
4186;SDS011;2107;52.306;10.484;2024-03-25T04:32:39;0.10;;;0.10;;
4186;SDS011;2107;52.306;10.484;2024-03-25T04:35:06;0.10;;;0.10;;
4186;SDS011;2107;52.306;10.484;2024-03-25T04:37:34;0.10;;;0.10;;
4186;SDS011;2107;52.306;10.484;2024-03-25T04:40:00;0.10;;;0.10;;
4186;SDS011;2107;52.306;10.484;2024-03-25T04:42:26;0.10;;;0.10;;
4186;SDS011;2107;52.306;10.484;2024-03-25T04:44:54;0.10;;;0.10;;
4186;SDS011;2107;52.306;10.484;2024-03-25T04:47:20;0.10;;;0.10;;
4186;SDS011;2107;52.306;10.484;2024-03-25T04:49:46;0.10;;;0.10;;
4186;SDS011;2107;52.306;10.484;2024-03-25T04:52:12;0.10;;;0.10;;
4186;SDS011;2107;52.306;10.484;2024-03-25T04:54:39;0.10;;;0.10;;
4186;SDS011;2107;52.306;10.484;2024-03-25T04:57:05;0.10;;;0.10;;
4186;SDS011;2107;52.306;10.484;2024-03-25T04:59:31;0.10;;;0.10;;
4186;SDS011;2107;52.306;10.484;2024-03-25T05:01:59;0.10;;;0.10;;
4186;SDS011;2107;52.306;10.484;2024-03-25T05:04:25;0.20;;;0.20;;
4186;SDS011;2107;52.306;10.484;2024-03-25T05:06:51;0.10;;;0.10;;
4186;SDS011;2107;52.306;10.484;2024-03-25T05:09:17;0.10;;;0.10;;
4186;SDS011;2107;52.306;10.484;2024-03-25T05:11:43;0.10;;;0.10;;
4186;SDS011;2107;52.306;10.484;2024-03-25T05:14:09;0.10;;;0.10;;
4186;SDS011;2107;52.306;10.484;2024-03-25T05:16:35;0.00;;;0.00;;
4186;SDS011;2107;52.306;10.484;2024-03-25T05:19:03;0.10;;;0.10;;
4186;SDS011;2107;52.306;10.484;2024-03-25T05:21:29;0.10;;;0.10;;
4186;SDS011;2107;52.306;10.484;2024-03-25T05:23:55;0.00;;;0.00;;
4186;SDS011;2107;52.306;10.484;2024-03-25T05:26:21;0.10;;;0.10;;
4186;SDS011;2107;52.306;10.484;2024-03-25T05:28:51;0.10;;;0.10;;
4186;SDS011;2107;52.306;10.484;2024-03-25T05:31:18;0.00;;;0.00;;
4186;SDS011;2107;52.306;10.484;2024-03-25T05:33:44;0.10;;;0.10;;
4186;SDS011;2107;52.306;10.484;2024-03-25T05:36:11;0.00;;;0.00;;
4186;SDS011;2107;52.306;10.484;2024-03-25T05:38:37;0.10;;;0.10;;
4186;SDS011;2107;52.306;10.484;2024-03-25T05:41:03;0.00;;;0.00;;
4186;SDS011;2107;52.306;10.484;2024-03-25T05:43:29;0.10;;;0.10;;
4186;SDS011;2107;52.306;10.484;2024-03-25T05:45:55;0.10;;;0.10;;
4186;SDS011;2107;52.306;10.484;2024-03-25T05:48:21;0.10;;;0.10;;
4186;SDS011;2107;52.306;10.484;2024-03-25T05:50:56;0.10;;;0.10;;
4186;SDS011;2107;52.306;10.484;2024-03-25T05:53:24;0.10;;;0.10;;
4186;SDS011;2107;52.306;10.484;2024-03-25T05:55:51;0.10;;;0.10;;
4186;SDS011;2107;52.306;10.484;2024-03-25T05:58:16;0.10;;;0.10;;
4186;SDS011;2107;52.306;10.484;2024-03-25T06:00:42;0.20;;;0.20;;
4186;SDS011;2107;52.306;10.484;2024-03-25T06:03:08;0.20;;;0.20;;
4186;SDS011;2107;52.306;10.484;2024-03-25T06:05:34;0.30;;;0.30;;
4186;SDS011;2107;52.306;10.484;2024-03-25T06:08:00;0.30;;;0.30;;
4186;SDS011;2107;52.306;10.484;2024-03-25T06:10:27;0.20;;;0.20;;
4186;SDS011;2107;52.306;10.484;2024-03-25T06:12:53;0.20;;;0.20;;
4186;SDS011;2107;52.306;10.484;2024-03-25T06:15:19;0.20;;;0.20;;
4186;SDS011;2107;52.306;10.484;2024-03-25T06:17:45;0.20;;;0.20;;
4186;SDS011;2107;52.306;10.484;2024-03-25T06:20:11;0.20;;;0.20;;
4186;SDS011;2107;52.306;10.484;2024-03-25T06:22:37;0.20;;;0.20;;
4186;SDS011;2107;52.306;10.484;2024-03-25T06:25:04;0.20;;;0.20;;
4186;SDS011;2107;52.306;10.484;2024-03-25T06:27:31;0.20;;;0.20;;
4186;SDS011;2107;52.306;10.484;2024-03-25T06:29:57;0.20;;;0.20;;
4186;SDS011;2107;52.306;10.484;2024-03-25T06:32:23;0.20;;;0.20;;
4186;SDS011;2107;52.306;10.484;2024-03-25T06:35:07;0.20;;;0.20;;
4186;SDS011;2107;52.306;10.484;2024-03-25T06:37:33;0.20;;;0.20;;
4186;SDS011;2107;52.306;10.484;2024-03-25T06:39:59;0.20;;;0.20;;
4186;SDS011;2107;52.306;10.484;2024-03-25T06:42:25;0.30;;;0.30;;
4186;SDS011;2107;52.306;10.484;2024-03-25T06:44:53;0.20;;;0.20;;
4186;SDS011;2107;52.306;10.484;2024-03-25T06:47:18;0.20;;;0.20;;
4186;SDS011;2107;52.306;10.484;2024-03-25T06:49:44;0.20;;;0.20;;
4186;SDS011;2107;52.306;10.484;2024-03-25T06:52:10;0.20;;;0.20;;
4186;SDS011;2107;52.306;10.484;2024-03-25T06:54:36;0.10;;;0.10;;
4186;SDS011;2107;52.306;10.484;2024-03-25T06:57:02;0.10;;;0.10;;
4186;SDS011;2107;52.306;10.484;2024-03-25T06:59:28;0.10;;;0.10;;
4186;SDS011;2107;52.306;10.484;2024-03-25T07:01:56;0.20;;;0.20;;
4186;SDS011;2107;52.306;10.484;2024-03-25T07:04:22;0.10;;;0.10;;
4186;SDS011;2107;52.306;10.484;2024-03-25T07:06:47;0.10;;;0.10;;
4186;SDS011;2107;52.306;10.484;2024-03-25T07:09:13;0.10;;;0.10;;
4186;SDS011;2107;52.306;10.484;2024-03-25T07:11:39;0.10;;;0.10;;
4186;SDS011;2107;52.306;10.484;2024-03-25T07:14:05;0.10;;;0.10;;
4186;SDS011;2107;52.306;10.484;2024-03-25T07:16:31;0.10;;;0.10;;
4186;SDS011;2107;52.306;10.484;2024-03-25T07:18:58;0.10;;;0.10;;
4186;SDS011;2107;52.306;10.484;2024-03-25T07:21:24;0.10;;;0.10;;
4186;SDS011;2107;52.306;10.484;2024-03-25T07:23:50;0.10;;;0.10;;
4186;SDS011;2107;52.306;10.484;2024-03-25T07:26:16;0.20;;;0.20;;
4186;SDS011;2107;52.306;10.484;2024-03-25T07:28:42;0.20;;;0.20;;
4186;SDS011;2107;52.306;10.484;2024-03-25T07:31:08;0.20;;;0.20;;
4186;SDS011;2107;52.306;10.484;2024-03-25T07:33:34;0.20;;;0.20;;
4186;SDS011;2107;52.306;10.484;2024-03-25T07:36:01;0.20;;;0.20;;
4186;SDS011;2107;52.306;10.484;2024-03-25T07:38:27;0.20;;;0.20;;
4186;SDS011;2107;52.306;10.484;2024-03-25T07:40:53;0.20;;;0.20;;
4186;SDS011;2107;52.306;10.484;2024-03-25T07:43:19;0.20;;;0.20;;
4186;SDS011;2107;52.306;10.484;2024-03-25T07:45:45;0.20;;;0.20;;
4186;SDS011;2107;52.306;10.484;2024-03-25T07:48:11;0.23;;;0.23;;
4186;SDS011;2107;52.306;10.484;2024-03-25T07:50:37;0.23;;;0.23;;
4186;SDS011;2107;52.306;10.484;2024-03-25T07:53:04;0.30;;;0.30;;
4186;SDS011;2107;52.306;10.484;2024-03-25T07:55:30;0.33;;;0.33;;
4186;SDS011;2107;52.306;10.484;2024-03-25T07:57:56;0.30;;;0.30;;
4186;SDS011;2107;52.306;10.484;2024-03-25T08:00:22;0.30;;;0.30;;
4186;SDS011;2107;52.306;10.484;2024-03-25T08:02:48;0.30;;;0.30;;
4186;SDS011;2107;52.306;10.484;2024-03-25T08:05:14;0.30;;;0.30;;
4186;SDS011;2107;52.306;10.484;2024-03-25T08:07:40;0.20;;;0.20;;
4186;SDS011;2107;52.306;10.484;2024-03-25T08:10:07;0.30;;;0.30;;
4186;SDS011;2107;52.306;10.484;2024-03-25T08:12:34;0.30;;;0.30;;
4186;SDS011;2107;52.306;10.484;2024-03-25T08:15:00;0.50;;;0.50;;
4186;SDS011;2107;52.306;10.484;2024-03-25T08:17:25;0.40;;;0.40;;
4186;SDS011;2107;52.306;10.484;2024-03-25T08:19:51;0.50;;;0.50;;
4186;SDS011;2107;52.306;10.484;2024-03-25T08:22:17;0.50;;;0.50;;
4186;SDS011;2107;52.306;10.484;2024-03-25T08:24:43;0.50;;;0.50;;
4186;SDS011;2107;52.306;10.484;2024-03-25T08:27:11;0.70;;;0.70;;
4186;SDS011;2107;52.306;10.484;2024-03-25T08:29:36;0.70;;;0.70;;
4186;SDS011;2107;52.306;10.484;2024-03-25T08:32:03;0.50;;;0.50;;
4186;SDS011;2107;52.306;10.484;2024-03-25T08:34:29;0.50;;;0.50;;
4186;SDS011;2107;52.306;10.484;2024-03-25T08:36:55;0.90;;;0.90;;
4186;SDS011;2107;52.306;10.484;2024-03-25T08:39:21;0.70;;;0.70;;
4186;SDS011;2107;52.306;10.484;2024-03-25T08:41:47;0.90;;;0.90;;
4186;SDS011;2107;52.306;10.484;2024-03-25T08:44:14;0.80;;;0.80;;
4186;SDS011;2107;52.306;10.484;2024-03-25T08:46:40;0.70;;;0.70;;
4186;SDS011;2107;52.306;10.484;2024-03-25T08:49:06;0.60;;;0.60;;
4186;SDS011;2107;52.306;10.484;2024-03-25T08:51:32;0.80;;;0.80;;
4186;SDS011;2107;52.306;10.484;2024-03-25T08:53:59;0.60;;;0.60;;
4186;SDS011;2107;52.306;10.484;2024-03-25T08:56:25;0.70;;;0.70;;
4186;SDS011;2107;52.306;10.484;2024-03-25T08:58:51;1.20;;;1.20;;
4186;SDS011;2107;52.306;10.484;2024-03-25T09:01:19;1.20;;;1.20;;
4186;SDS011;2107;52.306;10.484;2024-03-25T09:03:45;1.30;;;1.30;;
4186;SDS011;2107;52.306;10.484;2024-03-25T09:06:10;1.00;;;1.00;;
4186;SDS011;2107;52.306;10.484;2024-03-25T09:08:36;1.10;;;1.10;;
4186;SDS011;2107;52.306;10.484;2024-03-25T09:11:08;1.00;;;1.00;;
4186;SDS011;2107;52.306;10.484;2024-03-25T09:13:34;1.00;;;1.00;;
4186;SDS011;2107;52.306;10.484;2024-03-25T09:16:00;0.60;;;0.60;;
4186;SDS011;2107;52.306;10.484;2024-03-25T09:18:27;0.53;;;0.53;;
4186;SDS011;2107;52.306;10.484;2024-03-25T09:20:53;0.77;;;0.77;;
4186;SDS011;2107;52.306;10.484;2024-03-25T09:23:19;0.50;;;0.50;;
4186;SDS011;2107;52.306;10.484;2024-03-25T09:25:51;0.70;;;0.70;;
4186;SDS011;2107;52.306;10.484;2024-03-25T09:28:18;0.60;;;0.60;;
4186;SDS011;2107;52.306;10.484;2024-03-25T09:30:44;0.70;;;0.70;;
4186;SDS011;2107;52.306;10.484;2024-03-25T09:33:10;0.50;;;0.50;;
4186;SDS011;2107;52.306;10.484;2024-03-25T09:35:37;0.50;;;0.50;;
4186;SDS011;2107;52.306;10.484;2024-03-25T09:38:03;0.60;;;0.60;;
4186;SDS011;2107;52.306;10.484;2024-03-25T09:40:29;0.70;;;0.70;;
4186;SDS011;2107;52.306;10.484;2024-03-25T09:42:56;0.50;;;0.50;;
4186;SDS011;2107;52.306;10.484;2024-03-25T09:45:23;0.80;;;0.80;;
4186;SDS011;2107;52.306;10.484;2024-03-25T09:47:50;0.70;;;0.70;;
4186;SDS011;2107;52.306;10.484;2024-03-25T09:50:16;0.60;;;0.60;;
4186;SDS011;2107;52.306;10.484;2024-03-25T09:52:45;0.60;;;0.60;;
4186;SDS011;2107;52.306;10.484;2024-03-25T09:55:11;0.60;;;0.60;;
4186;SDS011;2107;52.306;10.484;2024-03-25T09:57:37;0.70;;;0.70;;
4186;SDS011;2107;52.306;10.484;2024-03-25T10:00:06;0.80;;;0.80;;
4186;SDS011;2107;52.306;10.484;2024-03-25T10:02:53;1.00;;;1.00;;
4186;SDS011;2107;52.306;10.484;2024-03-25T10:05:19;0.90;;;0.90;;
4186;SDS011;2107;52.306;10.484;2024-03-25T10:07:46;0.90;;;0.90;;
4186;SDS011;2107;52.306;10.484;2024-03-25T10:10:18;1.00;;;1.00;;
4186;SDS011;2107;52.306;10.484;2024-03-25T10:12:45;1.10;;;1.10;;
4186;SDS011;2107;52.306;10.484;2024-03-25T10:15:14;0.97;;;0.97;;
4186;SDS011;2107;52.306;10.484;2024-03-25T10:17:41;0.90;;;0.90;;
4186;SDS011;2107;52.306;10.484;2024-03-25T10:20:07;0.83;;;0.83;;
4186;SDS011;2107;52.306;10.484;2024-03-25T10:22:40;0.87;;;0.87;;
4186;SDS011;2107;52.306;10.484;2024-03-25T10:25:18;0.80;;;0.80;;
4186;SDS011;2107;52.306;10.484;2024-03-25T10:27:52;0.60;;;0.60;;
4186;SDS011;2107;52.306;10.484;2024-03-25T10:30:19;0.80;;;0.80;;
4186;SDS011;2107;52.306;10.484;2024-03-25T10:32:56;0.60;;;0.60;;
4186;SDS011;2107;52.306;10.484;2024-03-25T10:35:25;0.70;;;0.70;;
4186;SDS011;2107;52.306;10.484;2024-03-25T10:37:53;1.00;;;1.00;;
4186;SDS011;2107;52.306;10.484;2024-03-25T10:40:23;1.00;;;1.00;;
4186;SDS011;2107;52.306;10.484;2024-03-25T10:42:54;0.70;;;0.70;;
4186;SDS011;2107;52.306;10.484;2024-03-25T10:45:25;0.80;;;0.80;;
4186;SDS011;2107;52.306;10.484;2024-03-25T10:47:54;0.77;;;0.77;;
4186;SDS011;2107;52.306;10.484;2024-03-25T10:50:26;0.90;;;0.90;;
4186;SDS011;2107;52.306;10.484;2024-03-25T10:52:55;0.77;;;0.77;;
4186;SDS011;2107;52.306;10.484;2024-03-25T10:55:24;0.90;;;0.90;;
4186;SDS011;2107;52.306;10.484;2024-03-25T10:57:52;0.80;;;0.80;;
4186;SDS011;2107;52.306;10.484;2024-03-25T11:00:23;0.80;;;0.80;;
4186;SDS011;2107;52.306;10.484;2024-03-25T11:02:49;1.00;;;1.00;;
4186;SDS011;2107;52.306;10.484;2024-03-25T11:05:17;1.00;;;1.00;;
4186;SDS011;2107;52.306;10.484;2024-03-25T11:07:44;0.90;;;0.90;;
4186;SDS011;2107;52.306;10.484;2024-03-25T11:10:10;0.90;;;0.90;;
4186;SDS011;2107;52.306;10.484;2024-03-25T11:12:40;1.00;;;1.00;;
4186;SDS011;2107;52.306;10.484;2024-03-25T11:15:07;1.10;;;1.10;;
4186;SDS011;2107;52.306;10.484;2024-03-25T11:17:34;0.90;;;0.90;;
4186;SDS011;2107;52.306;10.484;2024-03-25T11:20:07;0.80;;;0.80;;
4186;SDS011;2107;52.306;10.484;2024-03-25T11:22:35;0.90;;;0.90;;
4186;SDS011;2107;52.306;10.484;2024-03-25T11:25:05;0.90;;;0.90;;
4186;SDS011;2107;52.306;10.484;2024-03-25T11:27:34;0.80;;;0.80;;
4186;SDS011;2107;52.306;10.484;2024-03-25T11:30:03;0.90;;;0.90;;
4186;SDS011;2107;52.306;10.484;2024-03-25T11:32:30;1.13;;;1.13;;
4186;SDS011;2107;52.306;10.484;2024-03-25T11:35:12;1.00;;;1.00;;
4186;SDS011;2107;52.306;10.484;2024-03-25T11:37:39;1.20;;;1.20;;
4186;SDS011;2107;52.306;10.484;2024-03-25T11:40:06;1.20;;;1.20;;
4186;SDS011;2107;52.306;10.484;2024-03-25T11:42:33;1.10;;;1.10;;
4186;SDS011;2107;52.306;10.484;2024-03-25T11:44:59;1.10;;;1.10;;
4186;SDS011;2107;52.306;10.484;2024-03-25T11:47:30;1.30;;;1.30;;
4186;SDS011;2107;52.306;10.484;2024-03-25T11:49:56;1.00;;;1.00;;
4186;SDS011;2107;52.306;10.484;2024-03-25T11:52:22;1.17;;;1.17;;
4186;SDS011;2107;52.306;10.484;2024-03-25T11:54:53;1.07;;;1.07;;
4186;SDS011;2107;52.306;10.484;2024-03-25T11:57:19;1.30;;;1.30;;
4186;SDS011;2107;52.306;10.484;2024-03-25T11:59:46;1.20;;;1.20;;
4186;SDS011;2107;52.306;10.484;2024-03-25T12:02:13;1.33;;;1.33;;
4186;SDS011;2107;52.306;10.484;2024-03-25T12:04:43;1.50;;;1.50;;
4186;SDS011;2107;52.306;10.484;2024-03-25T12:07:10;1.60;;;1.60;;
4186;SDS011;2107;52.306;10.484;2024-03-25T12:09:37;1.30;;;1.30;;
4186;SDS011;2107;52.306;10.484;2024-03-25T12:12:21;1.10;;;1.10;;
4186;SDS011;2107;52.306;10.484;2024-03-25T12:14:47;1.30;;;1.30;;
4186;SDS011;2107;52.306;10.484;2024-03-25T12:17:14;1.40;;;1.40;;
4186;SDS011;2107;52.306;10.484;2024-03-25T12:19:40;1.40;;;1.40;;
4186;SDS011;2107;52.306;10.484;2024-03-25T12:22:08;1.20;;;1.20;;
4186;SDS011;2107;52.306;10.484;2024-03-25T12:24:34;1.20;;;1.20;;
4186;SDS011;2107;52.306;10.484;2024-03-25T12:27:00;1.30;;;1.30;;
4186;SDS011;2107;52.306;10.484;2024-03-25T12:29:26;1.10;;;1.10;;
4186;SDS011;2107;52.306;10.484;2024-03-25T12:31:55;1.20;;;1.20;;
4186;SDS011;2107;52.306;10.484;2024-03-25T12:34:24;1.10;;;1.10;;
4186;SDS011;2107;52.306;10.484;2024-03-25T12:37:00;1.33;;;1.33;;
4186;SDS011;2107;52.306;10.484;2024-03-25T12:39:26;1.10;;;1.10;;
4186;SDS011;2107;52.306;10.484;2024-03-25T12:41:53;1.00;;;1.00;;
4186;SDS011;2107;52.306;10.484;2024-03-25T12:44:19;1.00;;;1.00;;
4186;SDS011;2107;52.306;10.484;2024-03-25T12:46:45;1.00;;;1.00;;
4186;SDS011;2107;52.306;10.484;2024-03-25T12:49:11;1.10;;;1.10;;
4186;SDS011;2107;52.306;10.484;2024-03-25T12:51:38;1.00;;;1.00;;
4186;SDS011;2107;52.306;10.484;2024-03-25T12:54:05;1.00;;;1.00;;
4186;SDS011;2107;52.306;10.484;2024-03-25T12:56:31;1.00;;;1.00;;
4186;SDS011;2107;52.306;10.484;2024-03-25T12:58:57;0.90;;;0.90;;
4186;SDS011;2107;52.306;10.484;2024-03-25T13:01:23;0.90;;;0.90;;
4186;SDS011;2107;52.306;10.484;2024-03-25T13:03:49;0.80;;;0.80;;
4186;SDS011;2107;52.306;10.484;2024-03-25T13:06:15;0.80;;;0.80;;
4186;SDS011;2107;52.306;10.484;2024-03-25T13:08:41;0.90;;;0.90;;
4186;SDS011;2107;52.306;10.484;2024-03-25T13:11:09;1.00;;;1.00;;
4186;SDS011;2107;52.306;10.484;2024-03-25T13:13:35;0.90;;;0.90;;
4186;SDS011;2107;52.306;10.484;2024-03-25T13:16:01;0.83;;;0.83;;
4186;SDS011;2107;52.306;10.484;2024-03-25T13:18:27;0.60;;;0.60;;
4186;SDS011;2107;52.306;10.484;2024-03-25T13:20:53;0.80;;;0.80;;
4186;SDS011;2107;52.306;10.484;2024-03-25T13:23:19;0.90;;;0.90;;
4186;SDS011;2107;52.306;10.484;2024-03-25T13:25:45;1.00;;;1.00;;
4186;SDS011;2107;52.306;10.484;2024-03-25T13:28:12;0.83;;;0.83;;
4186;SDS011;2107;52.306;10.484;2024-03-25T13:30:38;1.10;;;1.10;;
4186;SDS011;2107;52.306;10.484;2024-03-25T13:33:04;1.10;;;1.10;;
4186;SDS011;2107;52.306;10.484;2024-03-25T13:35:30;1.27;;;1.27;;
4186;SDS011;2107;52.306;10.484;2024-03-25T13:37:56;1.50;;;1.50;;
4186;SDS011;2107;52.306;10.484;2024-03-25T13:40:22;1.80;;;1.80;;
4186;SDS011;2107;52.306;10.484;2024-03-25T13:42:48;1.33;;;1.33;;
4186;SDS011;2107;52.306;10.484;2024-03-25T13:45:15;1.70;;;1.70;;
4186;SDS011;2107;52.306;10.484;2024-03-25T13:47:41;1.30;;;1.30;;
4186;SDS011;2107;52.306;10.484;2024-03-25T13:50:07;1.40;;;1.40;;
4186;SDS011;2107;52.306;10.484;2024-03-25T13:52:34;1.20;;;1.20;;
4186;SDS011;2107;52.306;10.484;2024-03-25T13:55:00;1.20;;;1.20;;
4186;SDS011;2107;52.306;10.484;2024-03-25T13:57:26;1.50;;;1.50;;
4186;SDS011;2107;52.306;10.484;2024-03-25T13:59:52;1.20;;;1.20;;
4186;SDS011;2107;52.306;10.484;2024-03-25T14:02:20;1.40;;;1.40;;
4186;SDS011;2107;52.306;10.484;2024-03-25T14:04:46;1.10;;;1.10;;
4186;SDS011;2107;52.306;10.484;2024-03-25T14:07:12;1.30;;;1.30;;
4186;SDS011;2107;52.306;10.484;2024-03-25T14:09:38;1.10;;;1.10;;
4186;SDS011;2107;52.306;10.484;2024-03-25T14:12:04;1.30;;;1.30;;
4186;SDS011;2107;52.306;10.484;2024-03-25T14:14:30;1.13;;;1.13;;
4186;SDS011;2107;52.306;10.484;2024-03-25T14:16:56;1.20;;;1.20;;
4186;SDS011;2107;52.306;10.484;2024-03-25T14:19:23;1.10;;;1.10;;
4186;SDS011;2107;52.306;10.484;2024-03-25T14:21:49;1.10;;;1.10;;
4186;SDS011;2107;52.306;10.484;2024-03-25T14:24:16;1.00;;;1.00;;
4186;SDS011;2107;52.306;10.484;2024-03-25T14:26:42;1.10;;;1.10;;
4186;SDS011;2107;52.306;10.484;2024-03-25T14:29:08;1.00;;;1.00;;
4186;SDS011;2107;52.306;10.484;2024-03-25T14:31:34;1.10;;;1.10;;
4186;SDS011;2107;52.306;10.484;2024-03-25T14:34:00;1.20;;;1.20;;
4186;SDS011;2107;52.306;10.484;2024-03-25T14:36:27;1.30;;;1.30;;
4186;SDS011;2107;52.306;10.484;2024-03-25T14:38:53;1.80;;;1.80;;
4186;SDS011;2107;52.306;10.484;2024-03-25T14:41:19;1.50;;;1.50;;
4186;SDS011;2107;52.306;10.484;2024-03-25T14:43:46;2.10;;;2.10;;
4186;SDS011;2107;52.306;10.484;2024-03-25T14:46:12;1.90;;;1.90;;
4186;SDS011;2107;52.306;10.484;2024-03-25T14:48:38;1.90;;;1.90;;
4186;SDS011;2107;52.306;10.484;2024-03-25T14:51:04;1.40;;;1.40;;
4186;SDS011;2107;52.306;10.484;2024-03-25T14:53:32;1.80;;;1.80;;
4186;SDS011;2107;52.306;10.484;2024-03-25T14:55:58;1.77;;;1.77;;
4186;SDS011;2107;52.306;10.484;2024-03-25T14:58:24;1.77;;;1.77;;